AirNav   Pilot Hours Calculator
 
 543 users online  

OA10 Workman's Landing Airport
Mount Orab, Ohio, USA

GOING TO MOUNT ORAB?


FAA INFORMATION EFFECTIVE 26 JANUARY 2023

Location

FAA Identifier: OA10
Lat/Long: 39-00-31.0000N 083-54-33.0000W
39-00.516667N 083-54.550000W
39.0086111,-83.9091667
(estimated)
Elevation: 950 ft. / 290 m (estimated)
Variation: 05W (1995)
From city: 2 miles SE of MOUNT ORAB, OH
Time zone: UTC -5 (UTC -4 during Daylight Saving Time)
Zip code: 45154

Airport Operations

Airport use: Private use. Permission required prior to landing
Activation date: 03/1998
Control tower: no
ARTCC: INDIANAPOLIS CENTER
FSS: DAYTON FLIGHT SERVICE STATION
Attendance: UNATNDD
Wind indicator: yes
Segmented circle: yes

Airport Communications

WX AWOS-3 at I69 (15 nm W): 127.275 (513-732-6978)

Nearby radio navigation aids

VOR radial/distance  VOR name  Freq  Var
MXQr195/25.8MIDWEST VOR/DME112.9004W
FLMr045/28.6FALMOUTH VOR/DME117.0004W
CVGr095/37.0CINCINNATI VORTAC117.3004W

 
NDB name  Hdg/Dist  Freq  Var  ID
SPORTYS110/14.824504WPWF .--. .-- ..-.
HOOK FIELD144/38.623904WHKF .... -.- ..-.

Airport Services

Runway Information

Runway 17/35

Dimensions: 2400 x 120 ft. / 732 x 37 m
Surface: turf, in good condition
RUNWAY 17  RUNWAY 35
Traffic pattern: rightleft
Displaced threshold: no600 ft.
Obstructions: none25 ft. pline, marked, 600 ft. from runway

Airport Ownership and Management from official FAA records

Ownership: Privately-owned
Owner: RANDY WORKMAN
4369 OAKLAND ROAD
BETHEL, OH 45106
Phone 513-368-9676
Manager: RANDY WORKMAN
4369 OAKLAND ROAD
BETHEL, OH 45106
Phone 513-368-9676

Airport Operational Statistics

Aircraft based on the field: 2
Single engine airplanes: 2
    

Additional Remarks

FOR CD CTC CINCINNATI APCH AT 859-372-6440

Instrument Procedures

There are no published instrument procedures at OA10.

Some nearby airports with instrument procedures:

KGEO - Brown County Airport (8 nm S)
I69 - Clermont County Airport (15 nm W)
KAMT - Alexander Salamon Airport (19 nm SE)
KHOC - Highland County Airport (20 nm NE)
KLUK - Cincinnati Municipal Airport/Lunken Field (24 nm W)
 
Loc | Ops | Rwys | IFR | FBO | Links
Com | Nav | Svcs | Stats | Notes
Area around OA10 (Workman's Landing Airport)
 
Road maps at: MapQuest Bing Google
 
Aerial photo
WARNING: Photo may not be current or correct
Aerial photo of OA10 (Workman's Landing Airport)
Do you have a better or more recent aerial photo of Workman's Landing Airport that you would like to share? If so, please send us your photo.

 
Sectional chart

 
Airport distance calculator
Flying to Workman's Landing Airport? Find the distance to fly.

From to OA10

Sunrise and sunset
Times for 29-Jan-2023
 Local
(UTC-5)
 Zulu
(UTC)
Morning civil twilight07:1712:17
Sunrise07:4612:46
Sunset17:5222:52
Evening civil twilight18:2023:20

Current date and time
Zulu (UTC)  29-Jan-2023 08:33:04
Local (UTC-5)  29-Jan-2023 03:33:04
 
METAR
KI69 
15nm W 
290815Z AUTO 21008G14KT 10SM BKN033 OVC043 06/04 A3012 RMK AO2 T00560037 P0001
KLUK 
24nm W 
290753Z AUTO 20009KT 9SM -RA BKN041 OVC050 07/04 A3012 RMK AO2 SLP201 P0004 T00670039
KILN 
26nm N 
290754Z AUTO 21015KT 4SM -RA FEW029 OVC039 06/03 A3009 RMK AO2 SLP202 P0003 T00610028
KK62 
29nm SW 
290815Z AUTO 19009G14KT 10SM DZ BKN035 OVC044 05/03 A3011 RMK AO2
KFGX 
29nm S 
290815Z AUTO 23007KT 7SM RA SCT033 BKN044 OVC050 05/03 A3015 RMK AO2 T00510025
TAF
KLUK 
24nm W 
290545Z 2906/3006 20012G18KT P6SM -SHRA OVC050 TEMPO 2906/2910 4SM -SHRA BR OVC028 FM291000 20013G22KT P6SM VCSH OVC018 FM291500 20013G22KT P6SM VCSH OVC009 FM292100 29007KT P6SM VCSH OVC008
KILN 
26nm N 
290545Z 2906/3006 20012KT P6SM VCSH OVC045 TEMPO 2906/2908 5SM -SHRA OVC025 FM290800 20013KT 3SM -SHRA BR OVC025 FM291200 20015G24KT 4SM BR VCSH OVC015 FM292000 29012KT P6SM VCSH OVC006 FM300200 34007KT 3SM BR OVC004
NOTAMs
Click for the latest NOTAMs
NOTAMs are issued by the DoD/FAA and will open in a separate window not controlled by AirNav.

 

 
 

Would you like to see your business listed on this page?

 If your business provides an interesting product or service to pilots, flight crews, aircraft, or users of the Workman's Landing Airport, you should consider listing it here.  To start the listing process, click on the button below
 
Add a business
 

Other Pages about Workman's Landing Airport

Update a link
 
Copyright © AirNav, LLC. All rights reserved. Privacy Policy  Contact